sensor_id;sensor_type;location;lat;lon;timestamp;P1;durP1;ratioP1;P2;durP2;ratioP2
43124;SDS011;49182;50.788;7.318;2023-12-14T00:04:23;5.15;;;3.55;;
43124;SDS011;49182;50.788;7.318;2023-12-14T00:09:25;7.45;;;3.72;;
43124;SDS011;49182;50.788;7.318;2023-12-14T00:14:27;7.25;;;3.55;;
43124;SDS011;49182;50.788;7.318;2023-12-14T00:19:30;7.18;;;3.75;;
43124;SDS011;49182;50.788;7.318;2023-12-14T00:24:32;23.23;;;9.13;;
43124;SDS011;49182;50.788;7.318;2023-12-14T00:29:34;31.85;;;11.18;;
43124;SDS011;49182;50.788;7.318;2023-12-14T00:34:37;17.92;;;7.80;;
43124;SDS011;49182;50.788;7.318;2023-12-14T00:39:39;23.67;;;9.05;;
43124;SDS011;49182;50.788;7.318;2023-12-14T00:44:40;11.73;;;6.40;;
43124;SDS011;49182;50.788;7.318;2023-12-14T00:49:43;10.55;;;4.85;;
43124;SDS011;49182;50.788;7.318;2023-12-14T00:54:45;7.65;;;5.03;;
43124;SDS011;49182;50.788;7.318;2023-12-14T00:59:47;9.57;;;4.70;;
43124;SDS011;49182;50.788;7.318;2023-12-14T01:04:51;10.57;;;4.45;;
43124;SDS011;49182;50.788;7.318;2023-12-14T01:09:52;8.75;;;5.13;;
43124;SDS011;49182;50.788;7.318;2023-12-14T01:14:54;10.43;;;5.50;;
43124;SDS011;49182;50.788;7.318;2023-12-14T01:19:57;9.50;;;5.93;;
43124;SDS011;49182;50.788;7.318;2023-12-14T01:24:59;11.98;;;6.40;;
43124;SDS011;49182;50.788;7.318;2023-12-14T01:30:01;17.60;;;8.55;;
43124;SDS011;49182;50.788;7.318;2023-12-14T01:35:10;11.80;;;6.25;;
43124;SDS011;49182;50.788;7.318;2023-12-14T01:40:15;11.10;;;7.55;;
43124;SDS011;49182;50.788;7.318;2023-12-14T01:45:19;8.20;;;5.60;;
43124;SDS011;49182;50.788;7.318;2023-12-14T01:50:23;9.48;;;5.78;;
43124;SDS011;49182;50.788;7.318;2023-12-14T01:55:24;8.88;;;5.75;;
43124;SDS011;49182;50.788;7.318;2023-12-14T02:00:28;8.68;;;5.13;;
43124;SDS011;49182;50.788;7.318;2023-12-14T02:05:46;7.40;;;5.85;;
43124;SDS011;49182;50.788;7.318;2023-12-14T02:10:48;9.93;;;5.32;;
43124;SDS011;49182;50.788;7.318;2023-12-14T02:15:51;6.75;;;4.72;;
43124;SDS011;49182;50.788;7.318;2023-12-14T02:20:54;8.10;;;5.57;;
43124;SDS011;49182;50.788;7.318;2023-12-14T02:25:57;6.22;;;5.55;;
43124;SDS011;49182;50.788;7.318;2023-12-14T02:30:59;6.43;;;4.47;;
43124;SDS011;49182;50.788;7.318;2023-12-14T02:36:00;7.82;;;5.03;;
43124;SDS011;49182;50.788;7.318;2023-12-14T02:41:05;9.65;;;4.95;;
43124;SDS011;49182;50.788;7.318;2023-12-14T02:46:07;7.80;;;4.35;;
43124;SDS011;49182;50.788;7.318;2023-12-14T02:51:12;6.75;;;5.32;;
43124;SDS011;49182;50.788;7.318;2023-12-14T02:56:15;7.45;;;4.63;;
43124;SDS011;49182;50.788;7.318;2023-12-14T03:01:18;6.32;;;4.53;;
43124;SDS011;49182;50.788;7.318;2023-12-14T03:06:20;6.88;;;4.93;;
43124;SDS011;49182;50.788;7.318;2023-12-14T03:11:23;9.23;;;5.35;;
43124;SDS011;49182;50.788;7.318;2023-12-14T03:16:26;10.20;;;5.13;;
43124;SDS011;49182;50.788;7.318;2023-12-14T03:21:27;6.75;;;4.55;;
43124;SDS011;49182;50.788;7.318;2023-12-14T03:26:31;8.07;;;5.22;;
43124;SDS011;49182;50.788;7.318;2023-12-14T03:31:32;8.88;;;5.70;;
43124;SDS011;49182;50.788;7.318;2023-12-14T03:36:34;7.47;;;5.25;;
43124;SDS011;49182;50.788;7.318;2023-12-14T03:41:37;6.95;;;4.95;;
43124;SDS011;49182;50.788;7.318;2023-12-14T03:51:40;5.78;;;4.53;;
43124;SDS011;49182;50.788;7.318;2023-12-14T03:56:43;8.15;;;4.90;;
43124;SDS011;49182;50.788;7.318;2023-12-14T04:06:47;7.25;;;5.25;;
43124;SDS011;49182;50.788;7.318;2023-12-14T04:11:50;6.43;;;4.75;;
43124;SDS011;49182;50.788;7.318;2023-12-14T04:21:53;6.75;;;4.50;;
43124;SDS011;49182;50.788;7.318;2023-12-14T04:26:56;8.60;;;5.15;;
43124;SDS011;49182;50.788;7.318;2023-12-14T04:31:58;6.57;;;4.72;;
43124;SDS011;49182;50.788;7.318;2023-12-14T04:37:00;7.68;;;5.03;;
43124;SDS011;49182;50.788;7.318;2023-12-14T04:42:04;7.63;;;4.82;;
43124;SDS011;49182;50.788;7.318;2023-12-14T04:47:06;8.30;;;5.55;;
43124;SDS011;49182;50.788;7.318;2023-12-14T04:52:07;9.68;;;5.43;;
43124;SDS011;49182;50.788;7.318;2023-12-14T04:57:11;9.90;;;5.65;;
43124;SDS011;49182;50.788;7.318;2023-12-14T05:02:12;7.97;;;5.45;;
43124;SDS011;49182;50.788;7.318;2023-12-14T05:07:14;9.52;;;4.38;;
43124;SDS011;49182;50.788;7.318;2023-12-14T05:12:18;11.05;;;5.28;;
43124;SDS011;49182;50.788;7.318;2023-12-14T05:17:19;9.00;;;4.53;;
43124;SDS011;49182;50.788;7.318;2023-12-14T05:22:21;7.43;;;5.43;;
43124;SDS011;49182;50.788;7.318;2023-12-14T05:27:25;8.73;;;6.07;;
43124;SDS011;49182;50.788;7.318;2023-12-14T05:32:27;11.57;;;6.45;;
43124;SDS011;49182;50.788;7.318;2023-12-14T05:37:29;6.95;;;5.10;;
43124;SDS011;49182;50.788;7.318;2023-12-14T05:42:32;8.93;;;5.97;;
43124;SDS011;49182;50.788;7.318;2023-12-14T05:47:34;8.57;;;5.60;;
43124;SDS011;49182;50.788;7.318;2023-12-14T05:52:36;9.00;;;5.32;;
43124;SDS011;49182;50.788;7.318;2023-12-14T05:57:39;9.88;;;6.07;;
43124;SDS011;49182;50.788;7.318;2023-12-14T06:02:41;9.23;;;5.47;;
43124;SDS011;49182;50.788;7.318;2023-12-14T06:07:43;8.90;;;5.15;;
43124;SDS011;49182;50.788;7.318;2023-12-14T06:12:47;9.68;;;6.22;;
43124;SDS011;49182;50.788;7.318;2023-12-14T06:17:52;9.98;;;5.57;;
43124;SDS011;49182;50.788;7.318;2023-12-14T06:22:54;9.75;;;5.57;;
43124;SDS011;49182;50.788;7.318;2023-12-14T06:27:57;7.57;;;3.85;;
43124;SDS011;49182;50.788;7.318;2023-12-14T06:32:59;8.80;;;5.55;;
43124;SDS011;49182;50.788;7.318;2023-12-14T06:38:01;9.82;;;6.03;;
43124;SDS011;49182;50.788;7.318;2023-12-14T06:43:04;8.20;;;4.47;;
43124;SDS011;49182;50.788;7.318;2023-12-14T06:48:06;8.10;;;4.53;;
43124;SDS011;49182;50.788;7.318;2023-12-14T06:53:08;7.80;;;4.28;;
43124;SDS011;49182;50.788;7.318;2023-12-14T06:58:11;10.20;;;5.43;;
43124;SDS011;49182;50.788;7.318;2023-12-14T07:03:13;10.63;;;6.10;;
43124;SDS011;49182;50.788;7.318;2023-12-14T07:08:17;13.02;;;6.93;;
43124;SDS011;49182;50.788;7.318;2023-12-14T07:13:20;12.82;;;6.63;;
43124;SDS011;49182;50.788;7.318;2023-12-14T07:18:22;12.65;;;8.48;;
43124;SDS011;49182;50.788;7.318;2023-12-14T07:23:24;15.50;;;8.32;;
43124;SDS011;49182;50.788;7.318;2023-12-14T07:28:27;16.83;;;8.00;;
43124;SDS011;49182;50.788;7.318;2023-12-14T07:33:29;13.18;;;7.50;;
43124;SDS011;49182;50.788;7.318;2023-12-14T07:38:31;15.63;;;8.43;;
43124;SDS011;49182;50.788;7.318;2023-12-14T07:43:35;14.55;;;7.10;;
43124;SDS011;49182;50.788;7.318;2023-12-14T07:48:36;16.13;;;8.10;;
43124;SDS011;49182;50.788;7.318;2023-12-14T07:53:38;15.35;;;7.90;;
43124;SDS011;49182;50.788;7.318;2023-12-14T07:58:42;16.63;;;8.82;;
43124;SDS011;49182;50.788;7.318;2023-12-14T08:03:43;15.88;;;8.48;;
43124;SDS011;49182;50.788;7.318;2023-12-14T08:08:45;14.35;;;7.35;;
43124;SDS011;49182;50.788;7.318;2023-12-14T08:13:48;18.50;;;8.00;;
43124;SDS011;49182;50.788;7.318;2023-12-14T08:18:50;16.80;;;7.75;;
43124;SDS011;49182;50.788;7.318;2023-12-14T08:23:52;14.30;;;6.70;;
43124;SDS011;49182;50.788;7.318;2023-12-14T08:28:56;17.30;;;8.65;;
43124;SDS011;49182;50.788;7.318;2023-12-14T08:33:57;14.27;;;7.65;;
43124;SDS011;49182;50.788;7.318;2023-12-14T08:38:59;17.05;;;6.95;;
43124;SDS011;49182;50.788;7.318;2023-12-14T08:44:03;14.10;;;6.35;;
43124;SDS011;49182;50.788;7.318;2023-12-14T08:49:05;14.18;;;7.75;;
43124;SDS011;49182;50.788;7.318;2023-12-14T08:54:07;15.82;;;8.93;;
43124;SDS011;49182;50.788;7.318;2023-12-14T08:59:10;13.88;;;7.43;;
43124;SDS011;49182;50.788;7.318;2023-12-14T09:04:12;14.32;;;9.13;;
43124;SDS011;49182;50.788;7.318;2023-12-14T09:09:13;14.77;;;7.97;;
43124;SDS011;49182;50.788;7.318;2023-12-14T09:14:17;12.90;;;7.80;;
43124;SDS011;49182;50.788;7.318;2023-12-14T09:19:19;10.38;;;7.10;;
43124;SDS011;49182;50.788;7.318;2023-12-14T09:24:20;10.48;;;6.75;;
43124;SDS011;49182;50.788;7.318;2023-12-14T09:29:24;13.43;;;6.65;;
43124;SDS011;49182;50.788;7.318;2023-12-14T09:34:26;13.50;;;7.28;;
43124;SDS011;49182;50.788;7.318;2023-12-14T09:39:28;16.75;;;8.20;;
43124;SDS011;49182;50.788;7.318;2023-12-14T09:44:31;16.75;;;7.85;;
43124;SDS011;49182;50.788;7.318;2023-12-14T09:49:33;16.85;;;9.60;;
43124;SDS011;49182;50.788;7.318;2023-12-14T09:54:37;19.25;;;10.63;;
43124;SDS011;49182;50.788;7.318;2023-12-14T09:59:40;25.90;;;12.88;;
43124;SDS011;49182;50.788;7.318;2023-12-14T10:04:42;32.53;;;14.43;;
43124;SDS011;49182;50.788;7.318;2023-12-14T10:09:44;29.48;;;15.38;;
43124;SDS011;49182;50.788;7.318;2023-12-14T10:14:47;20.27;;;10.85;;
43124;SDS011;49182;50.788;7.318;2023-12-14T10:20:01;20.75;;;9.70;;
43124;SDS011;49182;50.788;7.318;2023-12-14T10:25:03;20.20;;;9.25;;
43124;SDS011;49182;50.788;7.318;2023-12-14T10:30:08;14.10;;;7.53;;
43124;SDS011;49182;50.788;7.318;2023-12-14T10:35:11;10.43;;;4.15;;
43124;SDS011;49182;50.788;7.318;2023-12-14T10:40:13;13.27;;;5.70;;
43124;SDS011;49182;50.788;7.318;2023-12-14T10:45:17;13.05;;;6.20;;
43124;SDS011;49182;50.788;7.318;2023-12-14T10:50:23;10.93;;;5.72;;
43124;SDS011;49182;50.788;7.318;2023-12-14T10:55:27;10.10;;;5.05;;
43124;SDS011;49182;50.788;7.318;2023-12-14T11:00:34;7.63;;;4.78;;
43124;SDS011;49182;50.788;7.318;2023-12-14T11:05:37;9.23;;;4.80;;
43124;SDS011;49182;50.788;7.318;2023-12-14T11:10:39;11.02;;;5.57;;
43124;SDS011;49182;50.788;7.318;2023-12-14T11:15:47;10.35;;;5.93;;
43124;SDS011;49182;50.788;7.318;2023-12-14T11:20:51;14.80;;;6.30;;
43124;SDS011;49182;50.788;7.318;2023-12-14T11:25:58;9.10;;;4.15;;
43124;SDS011;49182;50.788;7.318;2023-12-14T11:31:03;11.07;;;6.63;;
43124;SDS011;49182;50.788;7.318;2023-12-14T11:36:05;9.93;;;5.07;;
43124;SDS011;49182;50.788;7.318;2023-12-14T11:41:07;11.02;;;5.75;;
43124;SDS011;49182;50.788;7.318;2023-12-14T11:46:10;9.23;;;4.65;;
43124;SDS011;49182;50.788;7.318;2023-12-14T11:51:13;10.73;;;4.57;;
43124;SDS011;49182;50.788;7.318;2023-12-14T11:56:15;10.18;;;4.55;;
43124;SDS011;49182;50.788;7.318;2023-12-14T12:01:20;10.48;;;5.20;;
43124;SDS011;49182;50.788;7.318;2023-12-14T12:06:22;10.15;;;4.78;;
43124;SDS011;49182;50.788;7.318;2023-12-14T12:11:25;10.27;;;4.82;;
43124;SDS011;49182;50.788;7.318;2023-12-14T12:16:28;8.95;;;4.95;;
43124;SDS011;49182;50.788;7.318;2023-12-14T12:21:30;12.68;;;5.35;;
43124;SDS011;49182;50.788;7.318;2023-12-14T12:26:32;15.60;;;7.35;;
43124;SDS011;49182;50.788;7.318;2023-12-14T12:31:35;14.27;;;6.82;;
43124;SDS011;49182;50.788;7.318;2023-12-14T12:36:37;11.75;;;6.30;;
43124;SDS011;49182;50.788;7.318;2023-12-14T12:41:41;14.32;;;7.95;;
43124;SDS011;49182;50.788;7.318;2023-12-14T12:46:44;13.98;;;8.63;;
43124;SDS011;49182;50.788;7.318;2023-12-14T12:51:52;16.27;;;8.27;;
43124;SDS011;49182;50.788;7.318;2023-12-14T12:56:53;16.65;;;8.43;;
43124;SDS011;49182;50.788;7.318;2023-12-14T13:01:57;16.23;;;10.50;;
43124;SDS011;49182;50.788;7.318;2023-12-14T13:06:58;20.25;;;9.65;;
43124;SDS011;49182;50.788;7.318;2023-12-14T13:12:00;24.75;;;11.73;;
43124;SDS011;49182;50.788;7.318;2023-12-14T13:17:04;22.67;;;10.35;;
43124;SDS011;49182;50.788;7.318;2023-12-14T13:22:05;21.70;;;11.60;;
43124;SDS011;49182;50.788;7.318;2023-12-14T13:27:07;18.08;;;9.90;;
43124;SDS011;49182;50.788;7.318;2023-12-14T13:32:10;22.15;;;10.30;;
43124;SDS011;49182;50.788;7.318;2023-12-14T13:37:12;20.10;;;9.68;;
43124;SDS011;49182;50.788;7.318;2023-12-14T13:42:14;18.90;;;9.60;;
43124;SDS011;49182;50.788;7.318;2023-12-14T13:47:17;19.35;;;9.43;;
43124;SDS011;49182;50.788;7.318;2023-12-14T13:52:19;17.25;;;10.55;;
43124;SDS011;49182;50.788;7.318;2023-12-14T13:57:21;18.58;;;9.60;;
43124;SDS011;49182;50.788;7.318;2023-12-14T14:02:25;21.30;;;11.80;;
43124;SDS011;49182;50.788;7.318;2023-12-14T14:07:26;18.52;;;9.27;;
43124;SDS011;49182;50.788;7.318;2023-12-14T14:12:28;20.10;;;9.80;;
43124;SDS011;49182;50.788;7.318;2023-12-14T14:17:31;19.63;;;11.15;;
43124;SDS011;49182;50.788;7.318;2023-12-14T14:22:33;19.48;;;10.38;;
43124;SDS011;49182;50.788;7.318;2023-12-14T14:27:35;23.67;;;11.18;;
43124;SDS011;49182;50.788;7.318;2023-12-14T14:32:39;18.42;;;9.40;;
43124;SDS011;49182;50.788;7.318;2023-12-14T14:37:41;19.15;;;10.50;;
43124;SDS011;49182;50.788;7.318;2023-12-14T14:42:43;20.90;;;10.90;;
43124;SDS011;49182;50.788;7.318;2023-12-14T14:47:46;18.20;;;10.25;;
43124;SDS011;49182;50.788;7.318;2023-12-14T14:52:48;15.15;;;9.35;;
43124;SDS011;49182;50.788;7.318;2023-12-14T14:57:50;17.77;;;10.52;;
43124;SDS011;49182;50.788;7.318;2023-12-14T15:02:53;17.27;;;10.20;;
43124;SDS011;49182;50.788;7.318;2023-12-14T15:12:56;17.88;;;10.18;;
43124;SDS011;49182;50.788;7.318;2023-12-14T15:17:59;14.52;;;7.85;;
43124;SDS011;49182;50.788;7.318;2023-12-14T15:23:01;12.30;;;7.55;;
43124;SDS011;49182;50.788;7.318;2023-12-14T15:28:03;16.10;;;8.60;;
43124;SDS011;49182;50.788;7.318;2023-12-14T15:33:06;12.77;;;7.63;;
43124;SDS011;49182;50.788;7.318;2023-12-14T15:38:10;12.05;;;7.28;;
43124;SDS011;49182;50.788;7.318;2023-12-14T15:43:12;16.95;;;7.25;;
43124;SDS011;49182;50.788;7.318;2023-12-14T15:48:15;14.05;;;7.05;;
43124;SDS011;49182;50.788;7.318;2023-12-14T15:53:17;10.60;;;6.05;;
43124;SDS011;49182;50.788;7.318;2023-12-14T15:58:19;15.23;;;7.18;;
43124;SDS011;49182;50.788;7.318;2023-12-14T16:03:22;12.55;;;6.82;;
43124;SDS011;49182;50.788;7.318;2023-12-14T16:13:25;15.15;;;7.03;;
43124;SDS011;49182;50.788;7.318;2023-12-14T16:18:28;12.70;;;7.15;;
43124;SDS011;49182;50.788;7.318;2023-12-14T16:23:30;11.27;;;7.43;;
43124;SDS011;49182;50.788;7.318;2023-12-14T16:28:32;12.93;;;7.85;;
43124;SDS011;49182;50.788;7.318;2023-12-14T16:33:38;12.63;;;8.45;;
43124;SDS011;49182;50.788;7.318;2023-12-14T16:38:40;15.60;;;9.00;;
43124;SDS011;49182;50.788;7.318;2023-12-14T16:43:42;15.60;;;8.07;;
43124;SDS011;49182;50.788;7.318;2023-12-14T16:48:45;10.88;;;6.50;;
43124;SDS011;49182;50.788;7.318;2023-12-14T16:53:48;13.82;;;7.75;;
43124;SDS011;49182;50.788;7.318;2023-12-14T16:58:49;14.27;;;7.80;;
43124;SDS011;49182;50.788;7.318;2023-12-14T17:03:52;14.80;;;8.20;;
43124;SDS011;49182;50.788;7.318;2023-12-14T17:08:54;13.27;;;8.32;;
43124;SDS011;49182;50.788;7.318;2023-12-14T17:13:56;14.70;;;8.30;;
43124;SDS011;49182;50.788;7.318;2023-12-14T17:19:00;15.23;;;8.90;;
43124;SDS011;49182;50.788;7.318;2023-12-14T17:24:01;16.70;;;8.05;;
43124;SDS011;49182;50.788;7.318;2023-12-14T17:29:03;14.30;;;7.40;;
43124;SDS011;49182;50.788;7.318;2023-12-14T17:34:07;15.32;;;8.80;;
43124;SDS011;49182;50.788;7.318;2023-12-14T17:39:09;15.43;;;9.10;;
43124;SDS011;49182;50.788;7.318;2023-12-14T17:44:11;13.18;;;8.80;;
43124;SDS011;49182;50.788;7.318;2023-12-14T17:49:14;14.60;;;7.43;;
43124;SDS011;49182;50.788;7.318;2023-12-14T17:54:16;14.85;;;8.88;;
43124;SDS011;49182;50.788;7.318;2023-12-14T17:59:18;14.48;;;9.23;;
43124;SDS011;49182;50.788;7.318;2023-12-14T18:04:21;13.13;;;7.95;;
43124;SDS011;49182;50.788;7.318;2023-12-14T18:14:24;11.82;;;6.95;;
43124;SDS011;49182;50.788;7.318;2023-12-14T18:19:28;21.90;;;12.23;;
43124;SDS011;49182;50.788;7.318;2023-12-14T18:24:30;15.07;;;6.95;;
43124;SDS011;49182;50.788;7.318;2023-12-14T18:29:32;13.73;;;7.63;;
43124;SDS011;49182;50.788;7.318;2023-12-14T18:34:35;14.15;;;8.15;;
43124;SDS011;49182;50.788;7.318;2023-12-14T18:39:37;14.77;;;7.18;;
43124;SDS011;49182;50.788;7.318;2023-12-14T18:44:39;22.38;;;13.70;;
43124;SDS011;49182;50.788;7.318;2023-12-14T18:49:42;17.30;;;12.65;;
43124;SDS011;49182;50.788;7.318;2023-12-14T18:54:44;15.80;;;9.23;;
43124;SDS011;49182;50.788;7.318;2023-12-14T18:59:46;19.92;;;8.40;;
43124;SDS011;49182;50.788;7.318;2023-12-14T19:04:49;14.05;;;8.55;;
43124;SDS011;49182;50.788;7.318;2023-12-14T19:09:51;14.10;;;8.98;;
43124;SDS011;49182;50.788;7.318;2023-12-14T19:14:53;12.35;;;6.68;;
43124;SDS011;49182;50.788;7.318;2023-12-14T19:19:56;13.10;;;8.27;;
43124;SDS011;49182;50.788;7.318;2023-12-14T19:24:58;15.63;;;9.60;;
43124;SDS011;49182;50.788;7.318;2023-12-14T19:30:00;17.45;;;8.95;;
43124;SDS011;49182;50.788;7.318;2023-12-14T19:35:04;16.08;;;8.38;;
43124;SDS011;49182;50.788;7.318;2023-12-14T19:40:06;16.23;;;9.38;;
43124;SDS011;49182;50.788;7.318;2023-12-14T19:50:13;16.90;;;8.73;;
43124;SDS011;49182;50.788;7.318;2023-12-14T19:55:15;13.98;;;8.50;;
43124;SDS011;49182;50.788;7.318;2023-12-14T20:00:17;16.55;;;8.63;;
43124;SDS011;49182;50.788;7.318;2023-12-14T20:05:20;12.02;;;7.15;;
43124;SDS011;49182;50.788;7.318;2023-12-14T20:10:22;18.75;;;9.10;;
43124;SDS011;49182;50.788;7.318;2023-12-14T20:15:24;13.48;;;6.95;;
43124;SDS011;49182;50.788;7.318;2023-12-14T20:20:27;15.23;;;8.00;;
43124;SDS011;49182;50.788;7.318;2023-12-14T20:25:29;16.75;;;8.30;;
43124;SDS011;49182;50.788;7.318;2023-12-14T20:30:32;16.55;;;8.80;;
43124;SDS011;49182;50.788;7.318;2023-12-14T20:35:35;17.65;;;9.15;;
43124;SDS011;49182;50.788;7.318;2023-12-14T20:50:42;12.63;;;7.15;;
43124;SDS011;49182;50.788;7.318;2023-12-14T21:10:50;18.05;;;9.23;;
43124;SDS011;49182;50.788;7.318;2023-12-14T21:15:52;12.27;;;6.22;;
43124;SDS011;49182;50.788;7.318;2023-12-14T21:20:55;18.55;;;8.88;;
43124;SDS011;49182;50.788;7.318;2023-12-14T21:25:57;14.52;;;7.90;;
43124;SDS011;49182;50.788;7.318;2023-12-14T21:30:58;12.77;;;7.30;;
43124;SDS011;49182;50.788;7.318;2023-12-14T21:36:02;13.35;;;6.53;;
43124;SDS011;49182;50.788;7.318;2023-12-14T21:41:04;14.25;;;7.55;;
43124;SDS011;49182;50.788;7.318;2023-12-14T21:46:06;13.43;;;8.32;;
43124;SDS011;49182;50.788;7.318;2023-12-14T21:51:10;16.08;;;8.55;;
43124;SDS011;49182;50.788;7.318;2023-12-14T21:56:12;14.18;;;8.02;;
43124;SDS011;49182;50.788;7.318;2023-12-14T22:01:14;18.90;;;9.48;;
43124;SDS011;49182;50.788;7.318;2023-12-14T22:06:17;17.90;;;7.85;;
43124;SDS011;49182;50.788;7.318;2023-12-14T22:11:18;17.45;;;9.00;;
43124;SDS011;49182;50.788;7.318;2023-12-14T22:16:20;14.00;;;7.55;;
43124;SDS011;49182;50.788;7.318;2023-12-14T22:21:23;14.95;;;7.93;;
43124;SDS011;49182;50.788;7.318;2023-12-14T22:26:25;14.32;;;8.02;;
43124;SDS011;49182;50.788;7.318;2023-12-14T22:31:27;14.80;;;7.38;;
43124;SDS011;49182;50.788;7.318;2023-12-14T22:36:30;13.85;;;7.28;;
43124;SDS011;49182;50.788;7.318;2023-12-14T22:41:32;14.93;;;7.35;;
43124;SDS011;49182;50.788;7.318;2023-12-14T22:46:37;17.23;;;8.30;;
43124;SDS011;49182;50.788;7.318;2023-12-14T22:51:41;16.13;;;8.73;;
43124;SDS011;49182;50.788;7.318;2023-12-14T22:56:43;15.88;;;9.38;;
43124;SDS011;49182;50.788;7.318;2023-12-14T23:01:45;15.43;;;7.50;;
43124;SDS011;49182;50.788;7.318;2023-12-14T23:06:48;15.23;;;7.85;;
43124;SDS011;49182;50.788;7.318;2023-12-14T23:11:50;14.98;;;8.50;;
43124;SDS011;49182;50.788;7.318;2023-12-14T23:16:52;14.50;;;8.38;;
43124;SDS011;49182;50.788;7.318;2023-12-14T23:21:55;13.50;;;7.88;;
43124;SDS011;49182;50.788;7.318;2023-12-14T23:26:57;14.48;;;7.57;;
43124;SDS011;49182;50.788;7.318;2023-12-14T23:31:58;15.73;;;8.73;;
43124;SDS011;49182;50.788;7.318;2023-12-14T23:37:02;17.23;;;8.07;;
43124;SDS011;49182;50.788;7.318;2023-12-14T23:42:04;18.65;;;8.68;;
43124;SDS011;49182;50.788;7.318;2023-12-14T23:47:06;14.77;;;8.82;;
43124;SDS011;49182;50.788;7.318;2023-12-14T23:52:09;13.40;;;8.82;;
43124;SDS011;49182;50.788;7.318;2023-12-14T23:57:11;15.82;;;9.02;;
